sensor_id;sensor_type;location;lat;lon;timestamp;P1;durP1;ratioP1;P2;durP2;ratioP2
36839;SDS011;24406;51.640;9.566;2023-02-15T00:01:07;58.58;;;26.65;;
36839;SDS011;24406;51.640;9.566;2023-02-15T00:06:08;69.25;;;27.30;;
36839;SDS011;24406;51.640;9.566;2023-02-15T00:11:10;81.03;;;26.88;;
36839;SDS011;24406;51.640;9.566;2023-02-15T00:16:14;74.97;;;27.75;;
36839;SDS011;24406;51.640;9.566;2023-02-15T00:21:16;73.03;;;26.55;;
36839;SDS011;24406;51.640;9.566;2023-02-15T00:26:17;59.35;;;26.42;;
36839;SDS011;24406;51.640;9.566;2023-02-15T00:31:20;53.88;;;27.63;;
36839;SDS011;24406;51.640;9.566;2023-02-15T00:36:24;48.45;;;26.13;;
36839;SDS011;24406;51.640;9.566;2023-02-15T00:41:26;64.22;;;26.98;;
36839;SDS011;24406;51.640;9.566;2023-02-15T00:46:29;58.30;;;25.55;;
36839;SDS011;24406;51.640;9.566;2023-02-15T00:51:30;50.15;;;24.10;;
36839;SDS011;24406;51.640;9.566;2023-02-15T00:56:32;55.53;;;24.77;;
36839;SDS011;24406;51.640;9.566;2023-02-15T01:01:36;63.03;;;23.08;;
36839;SDS011;24406;51.640;9.566;2023-02-15T01:06:41;46.20;;;22.45;;
36839;SDS011;24406;51.640;9.566;2023-02-15T01:11:44;99.18;;;24.30;;
36839;SDS011;24406;51.640;9.566;2023-02-15T01:16:55;65.85;;;23.67;;
36839;SDS011;24406;51.640;9.566;2023-02-15T01:22:00;72.30;;;23.73;;
36839;SDS011;24406;51.640;9.566;2023-02-15T01:27:05;47.67;;;23.15;;
36839;SDS011;24406;51.640;9.566;2023-02-15T01:32:11;49.45;;;22.70;;
36839;SDS011;24406;51.640;9.566;2023-02-15T01:37:17;53.50;;;21.90;;
36839;SDS011;24406;51.640;9.566;2023-02-15T01:42:22;52.55;;;22.15;;
36839;SDS011;24406;51.640;9.566;2023-02-15T01:47:31;43.88;;;22.23;;
36839;SDS011;24406;51.640;9.566;2023-02-15T01:52:39;45.33;;;22.55;;
36839;SDS011;24406;51.640;9.566;2023-02-15T01:57:46;39.10;;;21.70;;
36839;SDS011;24406;51.640;9.566;2023-02-15T02:02:53;35.42;;;19.40;;
36839;SDS011;24406;51.640;9.566;2023-02-15T02:07:59;42.88;;;21.40;;
36839;SDS011;24406;51.640;9.566;2023-02-15T02:13:08;55.65;;;21.83;;
36839;SDS011;24406;51.640;9.566;2023-02-15T02:18:19;46.58;;;20.83;;
36839;SDS011;24406;51.640;9.566;2023-02-15T02:23:30;62.25;;;22.23;;
36839;SDS011;24406;51.640;9.566;2023-02-15T02:28:52;48.13;;;21.55;;
36839;SDS011;24406;51.640;9.566;2023-02-15T02:34:19;42.60;;;21.00;;
36839;SDS011;24406;51.640;9.566;2023-02-15T02:39:28;50.38;;;21.92;;
36839;SDS011;24406;51.640;9.566;2023-02-15T02:44:38;42.55;;;21.95;;
36839;SDS011;24406;51.640;9.566;2023-02-15T02:49:47;39.25;;;20.33;;
36839;SDS011;24406;51.640;9.566;2023-02-15T02:54:53;77.00;;;22.08;;
36839;SDS011;24406;51.640;9.566;2023-02-15T02:59:59;54.83;;;22.60;;
36839;SDS011;24406;51.640;9.566;2023-02-15T03:05:11;50.40;;;20.60;;
36839;SDS011;24406;51.640;9.566;2023-02-15T03:10:19;42.97;;;21.23;;
36839;SDS011;24406;51.640;9.566;2023-02-15T03:15:27;43.07;;;20.03;;
36839;SDS011;24406;51.640;9.566;2023-02-15T03:20:56;40.20;;;20.40;;
36839;SDS011;24406;51.640;9.566;2023-02-15T03:26:05;42.97;;;20.65;;
36839;SDS011;24406;51.640;9.566;2023-02-15T03:31:12;37.45;;;19.08;;
36839;SDS011;24406;51.640;9.566;2023-02-15T03:36:20;38.50;;;19.75;;
36839;SDS011;24406;51.640;9.566;2023-02-15T03:41:26;34.63;;;19.02;;
36839;SDS011;24406;51.640;9.566;2023-02-15T03:46:33;43.50;;;20.45;;
36839;SDS011;24406;51.640;9.566;2023-02-15T03:51:42;46.28;;;21.10;;
36839;SDS011;24406;51.640;9.566;2023-02-15T03:56:49;47.40;;;21.05;;
36839;SDS011;24406;51.640;9.566;2023-02-15T04:02:15;50.22;;;21.08;;
36839;SDS011;24406;51.640;9.566;2023-02-15T04:07:27;52.63;;;21.58;;
36839;SDS011;24406;51.640;9.566;2023-02-15T04:12:32;43.65;;;18.80;;
36839;SDS011;24406;51.640;9.566;2023-02-15T04:17:36;44.75;;;20.33;;
36839;SDS011;24406;51.640;9.566;2023-02-15T04:22:49;50.63;;;20.92;;
36839;SDS011;24406;51.640;9.566;2023-02-15T04:28:12;40.17;;;20.33;;
36839;SDS011;24406;51.640;9.566;2023-02-15T04:33:17;46.92;;;19.75;;
36839;SDS011;24406;51.640;9.566;2023-02-15T04:38:23;36.25;;;18.85;;
36839;SDS011;24406;51.640;9.566;2023-02-15T04:43:47;37.70;;;20.42;;
36839;SDS011;24406;51.640;9.566;2023-02-15T04:48:51;41.25;;;20.38;;
36839;SDS011;24406;51.640;9.566;2023-02-15T04:53:58;43.60;;;18.75;;
36839;SDS011;24406;51.640;9.566;2023-02-15T04:59:02;34.97;;;19.73;;
36839;SDS011;24406;51.640;9.566;2023-02-15T05:04:06;48.22;;;22.92;;
36839;SDS011;24406;51.640;9.566;2023-02-15T05:09:09;35.72;;;20.23;;
36839;SDS011;24406;51.640;9.566;2023-02-15T05:14:11;39.67;;;21.60;;
36839;SDS011;24406;51.640;9.566;2023-02-15T05:19:13;44.45;;;20.98;;
36839;SDS011;24406;51.640;9.566;2023-02-15T05:24:16;39.92;;;21.30;;
36839;SDS011;24406;51.640;9.566;2023-02-15T05:29:35;41.38;;;20.20;;
36839;SDS011;24406;51.640;9.566;2023-02-15T05:34:36;38.38;;;19.42;;
36839;SDS011;24406;51.640;9.566;2023-02-15T05:39:39;34.67;;;18.75;;
36839;SDS011;24406;51.640;9.566;2023-02-15T05:44:40;40.78;;;19.75;;
36839;SDS011;24406;51.640;9.566;2023-02-15T05:49:42;37.70;;;19.52;;
36839;SDS011;24406;51.640;9.566;2023-02-15T05:54:45;39.10;;;22.48;;
36839;SDS011;24406;51.640;9.566;2023-02-15T05:59:46;38.95;;;22.35;;
36839;SDS011;24406;51.640;9.566;2023-02-15T06:04:48;32.13;;;18.60;;
36839;SDS011;24406;51.640;9.566;2023-02-15T06:09:51;36.28;;;19.20;;
36839;SDS011;24406;51.640;9.566;2023-02-15T06:14:52;33.78;;;18.92;;
36839;SDS011;24406;51.640;9.566;2023-02-15T06:19:54;32.83;;;18.20;;
36839;SDS011;24406;51.640;9.566;2023-02-15T06:24:56;31.65;;;18.80;;
36839;SDS011;24406;51.640;9.566;2023-02-15T06:29:58;29.15;;;17.73;;
36839;SDS011;24406;51.640;9.566;2023-02-15T06:34:59;35.00;;;18.35;;
36839;SDS011;24406;51.640;9.566;2023-02-15T06:40:03;27.98;;;16.63;;
36839;SDS011;24406;51.640;9.566;2023-02-15T06:45:05;23.50;;;15.63;;
36839;SDS011;24406;51.640;9.566;2023-02-15T06:50:08;24.65;;;15.88;;
36839;SDS011;24406;51.640;9.566;2023-02-15T06:55:11;24.90;;;14.73;;
36839;SDS011;24406;51.640;9.566;2023-02-15T07:00:13;25.90;;;16.25;;
36839;SDS011;24406;51.640;9.566;2023-02-15T07:05:15;22.90;;;14.25;;
36839;SDS011;24406;51.640;9.566;2023-02-15T07:10:18;27.55;;;16.45;;
36839;SDS011;24406;51.640;9.566;2023-02-15T07:15:20;23.77;;;14.25;;
36839;SDS011;24406;51.640;9.566;2023-02-15T07:20:22;24.70;;;15.52;;
36839;SDS011;24406;51.640;9.566;2023-02-15T07:25:25;26.13;;;17.17;;
36839;SDS011;24406;51.640;9.566;2023-02-15T07:30:27;27.85;;;17.10;;
36839;SDS011;24406;51.640;9.566;2023-02-15T07:35:29;25.05;;;15.32;;
36839;SDS011;24406;51.640;9.566;2023-02-15T07:40:32;26.63;;;16.67;;
36839;SDS011;24406;51.640;9.566;2023-02-15T07:45:33;26.02;;;17.45;;
36839;SDS011;24406;51.640;9.566;2023-02-15T07:50:35;21.70;;;15.20;;
36839;SDS011;24406;51.640;9.566;2023-02-15T07:55:37;23.27;;;15.18;;
36839;SDS011;24406;51.640;9.566;2023-02-15T08:00:39;22.40;;;15.30;;
36839;SDS011;24406;51.640;9.566;2023-02-15T08:05:55;22.88;;;14.85;;
36839;SDS011;24406;51.640;9.566;2023-02-15T08:11:00;20.55;;;14.45;;
36839;SDS011;24406;51.640;9.566;2023-02-15T08:16:23;21.85;;;14.27;;
36839;SDS011;24406;51.640;9.566;2023-02-15T08:21:26;22.58;;;15.25;;
36839;SDS011;24406;51.640;9.566;2023-02-15T08:26:29;24.17;;;15.55;;
36839;SDS011;24406;51.640;9.566;2023-02-15T08:31:31;24.98;;;15.45;;
36839;SDS011;24406;51.640;9.566;2023-02-15T08:36:33;24.30;;;15.77;;
36839;SDS011;24406;51.640;9.566;2023-02-15T08:41:37;23.90;;;15.77;;
36839;SDS011;24406;51.640;9.566;2023-02-15T08:46:39;24.58;;;16.25;;
36839;SDS011;24406;51.640;9.566;2023-02-15T08:51:42;21.65;;;15.05;;
36839;SDS011;24406;51.640;9.566;2023-02-15T08:56:45;20.92;;;14.05;;
36839;SDS011;24406;51.640;9.566;2023-02-15T09:01:47;21.35;;;14.52;;
36839;SDS011;24406;51.640;9.566;2023-02-15T09:06:50;19.83;;;14.35;;
36839;SDS011;24406;51.640;9.566;2023-02-15T09:11:53;20.48;;;14.57;;
36839;SDS011;24406;51.640;9.566;2023-02-15T09:16:55;20.38;;;14.55;;
36839;SDS011;24406;51.640;9.566;2023-02-15T09:21:56;19.60;;;13.80;;
36839;SDS011;24406;51.640;9.566;2023-02-15T09:26:59;22.17;;;14.98;;
36839;SDS011;24406;51.640;9.566;2023-02-15T09:32:01;18.98;;;14.32;;
36839;SDS011;24406;51.640;9.566;2023-02-15T09:37:04;17.63;;;12.85;;
36839;SDS011;24406;51.640;9.566;2023-02-15T09:42:24;18.70;;;13.57;;
36839;SDS011;24406;51.640;9.566;2023-02-15T09:47:41;21.73;;;15.63;;
36839;SDS011;24406;51.640;9.566;2023-02-15T09:52:53;19.90;;;13.93;;
36839;SDS011;24406;51.640;9.566;2023-02-15T09:58:04;15.65;;;11.70;;
36839;SDS011;24406;51.640;9.566;2023-02-15T10:03:13;16.08;;;12.25;;
36839;SDS011;24406;51.640;9.566;2023-02-15T10:08:30;17.08;;;12.40;;
36839;SDS011;24406;51.640;9.566;2023-02-15T10:13:40;16.75;;;13.05;;
36839;SDS011;24406;51.640;9.566;2023-02-15T10:18:53;15.32;;;11.65;;
36839;SDS011;24406;51.640;9.566;2023-02-15T10:24:01;17.27;;;12.80;;
36839;SDS011;24406;51.640;9.566;2023-02-15T10:29:16;17.25;;;12.77;;
36839;SDS011;24406;51.640;9.566;2023-02-15T10:34:28;15.25;;;11.73;;
36839;SDS011;24406;51.640;9.566;2023-02-15T10:39:34;17.10;;;12.10;;
36839;SDS011;24406;51.640;9.566;2023-02-15T10:44:47;13.82;;;11.15;;
36839;SDS011;24406;51.640;9.566;2023-02-15T10:50:00;15.85;;;12.98;;
36839;SDS011;24406;51.640;9.566;2023-02-15T10:55:14;17.47;;;12.73;;
36839;SDS011;24406;51.640;9.566;2023-02-15T11:00:21;13.10;;;11.13;;
36839;SDS011;24406;51.640;9.566;2023-02-15T11:05:29;15.70;;;12.27;;
36839;SDS011;24406;51.640;9.566;2023-02-15T11:10:37;14.77;;;12.50;;
36839;SDS011;24406;51.640;9.566;2023-02-15T11:15:43;14.15;;;11.73;;
36839;SDS011;24406;51.640;9.566;2023-02-15T11:20:49;14.18;;;11.82;;
36839;SDS011;24406;51.640;9.566;2023-02-15T11:25:57;14.97;;;11.80;;
36839;SDS011;24406;51.640;9.566;2023-02-15T11:31:02;15.25;;;11.85;;
36839;SDS011;24406;51.640;9.566;2023-02-15T11:36:15;16.65;;;13.57;;
36839;SDS011;24406;51.640;9.566;2023-02-15T11:41:18;16.33;;;12.27;;
36839;SDS011;24406;51.640;9.566;2023-02-15T11:46:22;15.95;;;12.27;;
36839;SDS011;24406;51.640;9.566;2023-02-15T11:51:24;16.50;;;12.93;;
36839;SDS011;24406;51.640;9.566;2023-02-15T11:56:30;15.52;;;12.68;;
36839;SDS011;24406;51.640;9.566;2023-02-15T12:01:35;16.42;;;12.93;;
36839;SDS011;24406;51.640;9.566;2023-02-15T12:06:42;15.63;;;13.27;;
36839;SDS011;24406;51.640;9.566;2023-02-15T12:11:45;18.23;;;13.32;;
36839;SDS011;24406;51.640;9.566;2023-02-15T12:16:49;16.45;;;12.63;;
36839;SDS011;24406;51.640;9.566;2023-02-15T12:21:52;15.00;;;11.90;;
36839;SDS011;24406;51.640;9.566;2023-02-15T12:26:58;13.65;;;11.07;;
36839;SDS011;24406;51.640;9.566;2023-02-15T12:32:03;15.60;;;12.23;;
36839;SDS011;24406;51.640;9.566;2023-02-15T12:37:07;14.43;;;12.27;;
36839;SDS011;24406;51.640;9.566;2023-02-15T12:42:14;15.48;;;13.00;;
36839;SDS011;24406;51.640;9.566;2023-02-15T12:47:19;16.30;;;13.13;;
36839;SDS011;24406;51.640;9.566;2023-02-15T12:52:23;16.23;;;12.95;;
36839;SDS011;24406;51.640;9.566;2023-02-15T12:57:26;15.43;;;12.70;;
36839;SDS011;24406;51.640;9.566;2023-02-15T13:02:33;14.40;;;12.20;;
36839;SDS011;24406;51.640;9.566;2023-02-15T13:07:37;15.27;;;12.13;;
36839;SDS011;24406;51.640;9.566;2023-02-15T13:12:39;16.95;;;11.75;;
36839;SDS011;24406;51.640;9.566;2023-02-15T13:22:50;15.32;;;13.10;;
36839;SDS011;24406;51.640;9.566;2023-02-15T13:27:54;14.27;;;10.55;;
36839;SDS011;24406;51.640;9.566;2023-02-15T13:32:59;15.10;;;11.55;;
36839;SDS011;24406;51.640;9.566;2023-02-15T13:38:06;15.50;;;11.30;;
36839;SDS011;24406;51.640;9.566;2023-02-15T13:43:28;15.30;;;11.02;;
36839;SDS011;24406;51.640;9.566;2023-02-15T13:48:41;13.20;;;11.38;;
36839;SDS011;24406;51.640;9.566;2023-02-15T13:53:49;13.65;;;11.50;;
36839;SDS011;24406;51.640;9.566;2023-02-15T13:59:09;13.88;;;11.65;;
36839;SDS011;24406;51.640;9.566;2023-02-15T14:04:30;14.40;;;11.40;;
36839;SDS011;24406;51.640;9.566;2023-02-15T14:09:40;14.60;;;11.52;;
36839;SDS011;24406;51.640;9.566;2023-02-15T14:14:51;12.70;;;10.57;;
36839;SDS011;24406;51.640;9.566;2023-02-15T14:20:01;16.40;;;13.07;;
36839;SDS011;24406;51.640;9.566;2023-02-15T14:25:13;13.35;;;11.20;;
36839;SDS011;24406;51.640;9.566;2023-02-15T14:30:19;16.77;;;11.90;;
36839;SDS011;24406;51.640;9.566;2023-02-15T14:35:24;13.32;;;11.40;;
36839;SDS011;24406;51.640;9.566;2023-02-15T14:40:30;14.68;;;11.20;;
36839;SDS011;24406;51.640;9.566;2023-02-15T14:45:53;16.08;;;11.88;;
36839;SDS011;24406;51.640;9.566;2023-02-15T14:50:57;14.40;;;12.13;;
36839;SDS011;24406;51.640;9.566;2023-02-15T15:01:24;17.38;;;13.30;;
36839;SDS011;24406;51.640;9.566;2023-02-15T15:06:30;16.90;;;12.18;;
36839;SDS011;24406;51.640;9.566;2023-02-15T15:11:37;16.20;;;13.70;;
36839;SDS011;24406;51.640;9.566;2023-02-15T15:16:50;17.40;;;14.48;;
36839;SDS011;24406;51.640;9.566;2023-02-15T15:21:54;16.67;;;12.52;;
36839;SDS011;24406;51.640;9.566;2023-02-15T15:32:28;20.00;;;13.80;;
36839;SDS011;24406;51.640;9.566;2023-02-15T15:37:41;14.77;;;12.35;;
36839;SDS011;24406;51.640;9.566;2023-02-15T15:42:49;16.10;;;12.48;;
36839;SDS011;24406;51.640;9.566;2023-02-15T15:47:58;18.77;;;12.75;;
36839;SDS011;24406;51.640;9.566;2023-02-15T15:53:25;19.77;;;14.80;;
36839;SDS011;24406;51.640;9.566;2023-02-15T15:58:28;17.67;;;13.27;;
36839;SDS011;24406;51.640;9.566;2023-02-15T16:03:31;21.88;;;14.15;;
36839;SDS011;24406;51.640;9.566;2023-02-15T16:08:35;21.42;;;13.50;;
36839;SDS011;24406;51.640;9.566;2023-02-15T16:13:39;20.35;;;14.50;;
36839;SDS011;24406;51.640;9.566;2023-02-15T16:18:40;17.65;;;13.70;;
36839;SDS011;24406;51.640;9.566;2023-02-15T16:29:13;19.63;;;13.98;;
36839;SDS011;24406;51.640;9.566;2023-02-15T16:34:16;19.88;;;13.25;;
36839;SDS011;24406;51.640;9.566;2023-02-15T16:39:20;17.77;;;12.80;;
36839;SDS011;24406;51.640;9.566;2023-02-15T16:44:21;16.20;;;11.40;;
36839;SDS011;24406;51.640;9.566;2023-02-15T16:49:23;14.15;;;10.68;;
36839;SDS011;24406;51.640;9.566;2023-02-15T16:54:28;17.67;;;10.48;;
36839;SDS011;24406;51.640;9.566;2023-02-15T16:59:32;16.95;;;10.93;;
36839;SDS011;24406;51.640;9.566;2023-02-15T17:04:35;17.02;;;11.43;;
36839;SDS011;24406;51.640;9.566;2023-02-15T17:09:40;17.25;;;10.93;;
36839;SDS011;24406;51.640;9.566;2023-02-15T17:14:50;14.00;;;9.88;;
36839;SDS011;24406;51.640;9.566;2023-02-15T17:19:55;14.35;;;9.63;;
36839;SDS011;24406;51.640;9.566;2023-02-15T17:24:58;16.58;;;10.80;;
36839;SDS011;24406;51.640;9.566;2023-02-15T17:30:01;13.02;;;10.25;;
36839;SDS011;24406;51.640;9.566;2023-02-15T17:35:05;15.40;;;11.60;;
36839;SDS011;24406;51.640;9.566;2023-02-15T17:40:16;15.95;;;11.32;;
36839;SDS011;24406;51.640;9.566;2023-02-15T17:45:20;16.13;;;11.48;;
36839;SDS011;24406;51.640;9.566;2023-02-15T17:50:23;16.73;;;11.88;;
36839;SDS011;24406;51.640;9.566;2023-02-15T17:55:27;17.70;;;12.70;;
36839;SDS011;24406;51.640;9.566;2023-02-15T18:00:43;19.63;;;12.73;;
36839;SDS011;24406;51.640;9.566;2023-02-15T18:06:03;23.33;;;13.32;;
36839;SDS011;24406;51.640;9.566;2023-02-15T18:11:24;19.48;;;13.68;;
36839;SDS011;24406;51.640;9.566;2023-02-15T18:16:38;21.25;;;14.38;;
36839;SDS011;24406;51.640;9.566;2023-02-15T18:21:42;23.42;;;15.00;;
36839;SDS011;24406;51.640;9.566;2023-02-15T18:26:45;26.20;;;16.13;;
36839;SDS011;24406;51.640;9.566;2023-02-15T18:31:48;26.15;;;16.10;;
36839;SDS011;24406;51.640;9.566;2023-02-15T18:36:52;30.45;;;18.58;;
36839;SDS011;24406;51.640;9.566;2023-02-15T18:41:56;48.13;;;34.72;;
36839;SDS011;24406;51.640;9.566;2023-02-15T18:46:57;32.13;;;23.60;;
36839;SDS011;24406;51.640;9.566;2023-02-15T18:51:59;30.55;;;21.40;;
36839;SDS011;24406;51.640;9.566;2023-02-15T18:57:03;28.00;;;18.20;;
36839;SDS011;24406;51.640;9.566;2023-02-15T19:02:05;27.20;;;18.23;;
36839;SDS011;24406;51.640;9.566;2023-02-15T19:07:14;29.65;;;19.85;;
36839;SDS011;24406;51.640;9.566;2023-02-15T19:12:18;33.88;;;22.27;;
36839;SDS011;24406;51.640;9.566;2023-02-15T19:17:20;29.55;;;19.75;;
36839;SDS011;24406;51.640;9.566;2023-02-15T19:22:24;29.25;;;19.65;;
36839;SDS011;24406;51.640;9.566;2023-02-15T19:27:28;28.65;;;17.67;;
36839;SDS011;24406;51.640;9.566;2023-02-15T19:32:31;31.33;;;19.38;;
36839;SDS011;24406;51.640;9.566;2023-02-15T19:37:33;26.58;;;18.85;;
36839;SDS011;24406;51.640;9.566;2023-02-15T19:42:37;32.40;;;20.90;;
36839;SDS011;24406;51.640;9.566;2023-02-15T19:47:39;32.22;;;22.00;;
36839;SDS011;24406;51.640;9.566;2023-02-15T19:52:42;41.20;;;22.77;;
36839;SDS011;24406;51.640;9.566;2023-02-15T19:57:45;39.38;;;23.10;;
36839;SDS011;24406;51.640;9.566;2023-02-15T20:02:47;45.60;;;24.80;;
36839;SDS011;24406;51.640;9.566;2023-02-15T20:07:50;43.33;;;24.35;;
36839;SDS011;24406;51.640;9.566;2023-02-15T20:12:53;41.40;;;23.08;;
36839;SDS011;24406;51.640;9.566;2023-02-15T20:17:55;42.25;;;24.08;;
36839;SDS011;24406;51.640;9.566;2023-02-15T20:22:57;40.47;;;23.27;;
36839;SDS011;24406;51.640;9.566;2023-02-15T20:28:00;43.22;;;27.05;;
36839;SDS011;24406;51.640;9.566;2023-02-15T20:33:02;42.38;;;25.38;;
36839;SDS011;24406;51.640;9.566;2023-02-15T20:38:03;45.47;;;26.48;;
36839;SDS011;24406;51.640;9.566;2023-02-15T20:43:08;43.55;;;25.27;;
36839;SDS011;24406;51.640;9.566;2023-02-15T20:48:12;51.57;;;27.90;;
36839;SDS011;24406;51.640;9.566;2023-02-15T20:53:13;47.00;;;27.33;;
36839;SDS011;24406;51.640;9.566;2023-02-15T20:58:19;43.28;;;25.20;;
36839;SDS011;24406;51.640;9.566;2023-02-15T21:03:23;45.17;;;24.52;;
36839;SDS011;24406;51.640;9.566;2023-02-15T21:08:29;43.83;;;24.77;;
36839;SDS011;24406;51.640;9.566;2023-02-15T21:13:32;45.05;;;25.27;;
36839;SDS011;24406;51.640;9.566;2023-02-15T21:18:35;45.78;;;24.80;;
36839;SDS011;24406;51.640;9.566;2023-02-15T21:23:38;46.13;;;25.92;;
36839;SDS011;24406;51.640;9.566;2023-02-15T21:28:42;39.83;;;24.55;;
36839;SDS011;24406;51.640;9.566;2023-02-15T21:33:44;50.15;;;26.65;;
36839;SDS011;24406;51.640;9.566;2023-02-15T21:38:45;52.22;;;27.20;;
36839;SDS011;24406;51.640;9.566;2023-02-15T21:43:49;44.55;;;26.20;;
36839;SDS011;24406;51.640;9.566;2023-02-15T21:49:08;40.53;;;25.92;;
36839;SDS011;24406;51.640;9.566;2023-02-15T21:54:10;45.58;;;26.13;;
36839;SDS011;24406;51.640;9.566;2023-02-15T21:59:14;47.28;;;23.30;;
36839;SDS011;24406;51.640;9.566;2023-02-15T22:04:18;46.28;;;25.55;;
36839;SDS011;24406;51.640;9.566;2023-02-15T22:09:22;47.83;;;25.33;;
36839;SDS011;24406;51.640;9.566;2023-02-15T22:14:36;51.13;;;27.33;;
36839;SDS011;24406;51.640;9.566;2023-02-15T22:19:39;47.33;;;25.92;;
36839;SDS011;24406;51.640;9.566;2023-02-15T22:24:40;52.97;;;28.65;;
36839;SDS011;24406;51.640;9.566;2023-02-15T22:29:43;56.63;;;30.08;;
36839;SDS011;24406;51.640;9.566;2023-02-15T22:34:46;48.45;;;28.08;;
36839;SDS011;24406;51.640;9.566;2023-02-15T22:39:48;52.15;;;27.30;;
36839;SDS011;24406;51.640;9.566;2023-02-15T22:44:50;45.53;;;26.05;;
36839;SDS011;24406;51.640;9.566;2023-02-15T22:49:52;56.83;;;27.40;;
36839;SDS011;24406;51.640;9.566;2023-02-15T22:54:54;52.10;;;27.55;;
36839;SDS011;24406;51.640;9.566;2023-02-15T22:59:57;51.88;;;26.33;;
36839;SDS011;24406;51.640;9.566;2023-02-15T23:04:59;50.70;;;27.20;;
36839;SDS011;24406;51.640;9.566;2023-02-15T23:10:01;51.60;;;27.48;;
36839;SDS011;24406;51.640;9.566;2023-02-15T23:15:05;47.35;;;25.60;;
36839;SDS011;24406;51.640;9.566;2023-02-15T23:20:14;48.72;;;25.17;;
36839;SDS011;24406;51.640;9.566;2023-02-15T23:25:16;46.30;;;25.63;;
36839;SDS011;24406;51.640;9.566;2023-02-15T23:30:22;47.95;;;25.23;;
36839;SDS011;24406;51.640;9.566;2023-02-15T23:35:23;49.45;;;26.52;;
36839;SDS011;24406;51.640;9.566;2023-02-15T23:40:25;46.58;;;25.58;;
36839;SDS011;24406;51.640;9.566;2023-02-15T23:45:45;44.03;;;24.10;;
36839;SDS011;24406;51.640;9.566;2023-02-15T23:50:47;49.47;;;25.35;;
36839;SDS011;24406;51.640;9.566;2023-02-15T23:55:48;48.13;;;25.17;;
